Time;durP1;ratioP1;P1;durP2;ratioP2;P2;SDS_P1;SDS_P2;PMS_P1;PMS_P2;Temp;Humidity;BMP_temperature;BMP_pressure;BME280_temperature;BME280_humidity;BME280_pressure;Samples;Min_cycle;Max_cycle;Signal;HPM_P1;HPM_P2
2023/04/30 00:04:37;;;;;;;11.10;5.87;;;7.50;99.90;;;;;;10518441;28;20524;-79
2023/04/30 00:09:58;;;;;;;9.90;6.37;;;7.40;99.90;;;;;;10504476;28;20198;-79
2023/04/30 00:15:19;;;;;;;8.50;5.70;;;7.30;99.90;;;;;;10505119;28;20201;-79
2023/04/30 00:20:40;;;;;;;9.67;6.10;;;7.30;99.90;;;;;;10534205;28;20202;-81
2023/04/30 00:32:00;;;;;;;8.20;5.17;;;7.10;99.90;;;;;;10268853;23;20245;-78
2023/04/30 00:37:21;;;;;;;9.03;5.67;;;7.10;99.90;;;;;;10050404;29;20271;-78
2023/04/30 00:42:42;;;;;;;9.03;6.37;;;7.10;99.90;;;;;;10067106;29;20370;-73
2023/04/30 00:48:04;;;;;;;10.77;6.30;;;7.00;99.90;;;;;;10074096;29;20244;-79
2023/04/30 00:53:25;;;;;;;11.47;5.90;;;6.90;99.90;;;;;;10027288;29;20333;-75
2023/04/30 00:58:48;;;;;;;10.77;6.17;;;6.90;99.90;;;;;;10039717;29;20199;-79
2023/04/30 01:04:09;;;;;;;11.50;5.97;;;6.80;99.90;;;;;;10070557;29;20264;-80
2023/04/30 01:09:31;;;;;;;13.00;6.00;;;6.80;99.90;;;;;;10100061;29;20550;-78
2023/04/30 01:15:33;;;;;;;11.47;6.13;;;6.70;99.90;;;;;;10115882;29;20311;-78
2023/04/30 01:21:17;;;;;;;10.13;5.47;;;6.60;99.90;;;;;;10075201;29;20275;-78
2023/04/30 01:27:10;;;;;;;11.63;5.33;;;6.60;99.90;;;;;;10059134;29;20247;-78
2023/04/30 01:32:31;;;;;;;10.30;6.07;;;6.50;99.90;;;;;;10095628;29;20247;-76
2023/04/30 01:38:26;;;;;;;10.83;5.40;;;6.50;99.90;;;;;;10120082;29;20245;-76
2023/04/30 01:44:08;;;;;;;9.97;5.17;;;6.40;99.90;;;;;;10082406;29;20213;-75
2023/04/30 01:49:34;;;;;;;10.37;5.40;;;6.30;99.90;;;;;;10003152;29;20455;-78
2023/04/30 01:55:04;;;;;;;8.90;4.77;;;6.20;99.90;;;;;;9991864;29;20215;-78
2023/04/30 02:00:26;;;;;;;9.63;4.83;;;6.20;99.90;;;;;;10004447;29;20219;-75
2023/04/30 02:05:49;;;;;;;9.47;5.37;;;6.10;99.90;;;;;;9984781;29;20556;-78
2023/04/30 02:11:10;;;;;;;16.87;5.73;;;6.10;99.90;;;;;;9983312;29;20534;-77
2023/04/30 02:16:31;;;;;;;8.13;5.17;;;6.10;99.90;;;;;;9952450;29;20228;-73
2023/04/30 02:21:53;;;;;;;11.10;5.37;;;6.00;99.90;;;;;;10002852;29;20202;-72
2023/04/30 02:27:14;;;;;;;8.30;5.10;;;6.00;99.90;;;;;;10076155;29;20248;-75
2023/04/30 02:32:35;;;;;;;11.37;5.47;;;5.90;99.90;;;;;;10094096;29;20199;-76
2023/04/30 02:37:57;;;;;;;10.63;5.83;;;5.80;99.90;;;;;;10078520;29;20502;-79
2023/04/30 02:43:18;;;;;;;8.37;5.00;;;5.80;99.90;;;;;;10094933;29;20227;-77
2023/04/30 02:48:40;;;;;;;8.23;4.87;;;;;;;;;;10081909;29;20235;-77
2023/04/30 02:54:01;;;;;;;10.50;4.67;;;;;;;;;;10130722;29;20290;-79
2023/04/30 02:59:22;;;;;;;9.73;4.10;;;;;;;;;;10119602;29;20382;-77
2023/04/30 03:04:44;;;;;;;10.40;3.93;;;;;;;;;;10114146;29;20449;-74
2023/04/30 03:10:06;;;;;;;8.43;4.27;;;;;;;;;;10093688;29;20490;-78
2023/04/30 03:15:27;;;;;;;7.43;3.73;;;;;;;;;;10080692;29;20444;-77
2023/04/30 03:20:48;;;;;;;7.07;4.07;;;;;;;;;;10096627;29;20235;-75
2023/04/30 03:26:10;;;;;;;12.40;4.50;;;;;;;;;;10118332;29;20324;-74
2023/04/30 03:31:31;;;;;;;7.00;3.63;;;;;;;;;;10087617;29;20262;-76
2023/04/30 03:36:53;;;;;;;7.00;4.00;;;;;;;;;;10115315;29;20258;-77
2023/04/30 03:42:14;;;;;;;10.03;4.83;;;;;;;;;;10080404;29;20359;-75
2023/04/30 03:47:36;;;;;;;7.77;3.80;;;;;;;;;;10078715;29;20219;-74
2023/04/30 03:52:57;;;;;;;7.13;3.43;;;;;;;;;;10115764;29;20255;-78
2023/04/30 03:58:19;;;;;;;9.60;3.50;;;;;;;;;;10117400;29;20286;-78
2023/04/30 04:03:40;;;;;;;10.00;3.53;;;;;;;;;;10106169;29;20200;-77
2023/04/30 04:09:03;;;;;;;10.90;3.90;;;;;;;;;;10078491;29;20226;-74
2023/04/30 04:14:24;;;;;;;8.10;3.27;;;;;;;;;;10065727;29;20426;-75
2023/04/30 04:19:45;;;;;;;11.30;3.63;;;5.40;99.90;;;;;;10094204;29;20207;-77
2023/04/30 04:25:09;;;;;;;7.87;3.50;;;5.30;99.90;;;;;;10130059;29;20242;-74
2023/04/30 04:30:31;;;;;;;6.67;3.07;;;5.30;99.90;;;;;;10119942;29;20540;-74
2023/04/30 04:35:52;;;;;;;11.93;4.33;;;5.30;99.90;;;;;;10117186;29;20233;-78
2023/04/30 04:41:14;;;;;;;11.30;4.30;;;5.40;99.90;;;;;;10099201;29;20384;-74
2023/04/30 04:46:41;;;;;;;8.70;3.80;;;5.40;99.90;;;;;;10064324;29;20310;-75
2023/04/30 04:52:02;;;;;;;9.47;3.20;;;5.50;99.90;;;;;;10078079;29;20196;-74
2023/04/30 04:57:24;;;;;;;10.03;3.53;;;5.50;99.90;;;;;;10078148;29;20200;-75
2023/04/30 05:02:46;;;;;;;7.30;3.10;;;5.60;99.90;;;;;;10071768;29;20288;-74
2023/04/30 05:08:07;;;;;;;7.17;3.10;;;5.70;99.90;;;;;;10060067;29;20264;-77
2023/04/30 05:13:28;;;;;;;14.67;4.00;;;5.80;99.90;;;;;;10071769;29;20263;-77
2023/04/30 05:18:49;;;;;;;13.43;3.87;;;5.90;99.90;;;;;;10095299;29;20210;-77
2023/04/30 05:24:10;;;;;;;12.90;3.53;;;6.10;99.90;;;;;;10123310;29;20200;-74
2023/04/30 05:29:32;;;;;;;12.77;3.80;;;6.20;99.90;;;;;;10121262;29;20231;-77
2023/04/30 05:34:53;;;;;;;10.43;3.87;;;6.40;99.90;;;;;;10096214;29;20289;-74
2023/04/30 05:40:14;;;;;;;18.33;5.13;;;6.60;99.90;;;;;;10114255;29;20534;-74
2023/04/30 05:45:35;;;;;;;85.80;44.70;;;6.80;99.90;;;;;;10083867;29;20235;-72
2023/04/30 05:50:56;;;;;;;13.03;5.13;;;7.10;99.90;;;;;;10082511;29;20371;-76
2023/04/30 05:56:18;;;;;;;8.13;3.40;;;7.50;99.90;;;;;;10066694;29;20215;-74
2023/04/30 06:01:40;;;;;;;10.07;2.90;;;8.00;99.90;;;;;;10091405;29;20199;-77
2023/04/30 06:07:01;;;;;;;11.23;3.80;;;8.30;99.90;;;;;;10081921;29;20292;-79
2023/04/30 06:12:22;;;;;;;8.27;3.03;;;8.60;99.90;;;;;;10084261;29;20205;-74
2023/04/30 06:17:43;;;;;;;11.47;3.37;;;9.20;97.50;;;;;;10083688;29;20343;-78
2023/04/30 06:23:05;;;;;;;10.97;3.07;;;9.80;94.00;;;;;;10115330;29;20418;-77
2023/04/30 06:28:26;;;;;;;10.40;2.73;;;10.40;90.30;;;;;;10121843;29;20236;-77
2023/04/30 06:33:47;;;;;;;10.07;3.20;;;10.80;73.40;;;;;;10085554;29;20202;-79
2023/04/30 06:39:09;;;;;;;9.20;2.40;;;11.10;68.40;;;;;;10119257;29;20399;-78
2023/04/30 06:44:30;;;;;;;15.33;3.03;;;11.30;58.00;;;;;;10083046;29;20216;-75
2023/04/30 06:49:51;;;;;;;7.97;3.17;;;11.90;37.60;;;;;;10092528;29;20449;-78
2023/04/30 06:55:12;;;;;;;9.27;2.77;;;12.70;32.60;;;;;;10121168;29;20248;-78
2023/04/30 07:00:34;;;;;;;7.77;2.80;;;13.30;27.70;;;;;;10120525;29;20378;-75
2023/04/30 07:05:55;;;;;;;8.10;1.90;;;13.40;24.30;;;;;;10081326;29;20230;-79
2023/04/30 07:11:16;;;;;;;7.97;2.77;;;13.60;24.00;;;;;;10043555;29;20204;-76
2023/04/30 07:16:38;;;;;;;5.35;1.90;;;;;;;;;;10043311;29;20255;-77
2023/04/30 07:21:59;;;;;;;6.55;2.00;;;;;;;;;;10060832;29;20201;-73
2023/04/30 07:27:21;;;;;;;10.38;3.15;;;;;;;;;;10080811;29;20264;-79
2023/04/30 07:32:43;;;;;;;8.40;1.90;;;;;;;;;;10076803;29;20199;-74
2023/04/30 07:38:04;;;;;;;6.53;2.50;;;14.80;13.40;;;;;;10049590;29;20204;-77
2023/04/30 07:43:25;;;;;;;4.25;1.73;;;15.10;11.90;;;;;;10080221;29;20192;-77
2023/04/30 07:48:46;;;;;;;7.25;2.22;;;15.50;11.50;;;;;;10090649;29;20257;-77
2023/04/30 07:54:08;;;;;;;13.40;3.92;;;15.20;10.40;;;;;;10117426;29;20219;-78
2023/04/30 07:59:29;;;;;;;5.97;2.45;;;14.90;12.20;;;;;;10118445;29;20199;-76
2023/04/30 08:04:50;;;;;;;4.93;2.03;;;14.90;11.10;;;;;;10118422;29;20223;-75
2023/04/30 08:10:12;;;;;;;3.67;2.00;;;14.60;11.20;;;;;;10079569;29;20203;-78
2023/04/30 08:15:33;;;;;;;5.85;2.33;;;15.30;9.30;;;;;;10079306;29;20195;-75
2023/04/30 08:20:55;;;;;;;10.60;2.80;;;15.60;9.70;;;;;;10108841;29;20208;-78
2023/04/30 08:26:15;;;;;;;3.10;2.05;;;14.60;10.00;;;;;;10117639;29;20524;-74
2023/04/30 08:31:36;;;;;;;5.43;2.00;;;14.90;1.00;;;;;;10096789;29;20235;-78
2023/04/30 08:36:58;;;;;;;4.07;2.00;;;16.20;1.00;;;;;;10065178;29;20213;-78
2023/04/30 08:42:23;;;;;;;6.68;2.20;;;16.00;1.00;;;;;;10082465;29;20220;-77
2023/04/30 08:47:45;;;;;;;6.68;2.92;;;15.60;1.00;;;;;;10086926;29;20225;-76
2023/04/30 08:53:09;;;;;;;4.95;1.30;;;15.80;1.00;;;;;;10092053;29;20215;-78
2023/04/30 08:58:30;;;;;;;6.68;1.92;;;16.10;1.00;;;;;;10101200;29;20254;-73
2023/04/30 09:03:51;;;;;;;3.50;1.70;;;17.00;1.00;;;;;;10110959;29;20566;-74
2023/04/30 09:09:14;;;;;;;7.68;1.80;;;16.40;99.90;;;;;;10092252;29;20231;-75
2023/04/30 09:14:39;;;;;;;3.95;1.48;;;16.70;99.90;;;;;;10089525;29;20551;-73
2023/04/30 09:20:07;;;;;;;5.03;1.40;;;16.20;99.90;;;;;;10122776;29;20209;-74
2023/04/30 09:25:39;;;;;;;7.30;1.85;;;16.20;99.90;;;;;;10127016;29;20348;-73
2023/04/30 09:31:00;;;;;;;5.53;1.70;;;16.90;99.90;;;;;;10111715;29;20248;-75
2023/04/30 09:36:21;;;;;;;5.25;1.63;;;17.80;1.00;;;;;;10088353;29;20212;-75
2023/04/30 09:41:42;;;;;;;6.53;2.25;;;18.10;99.90;;;;;;10087657;29;20200;-74
2023/04/30 09:47:09;;;;;;;5.53;2.25;;;18.00;1.00;;;;;;10101597;29;20452;-74
2023/04/30 09:52:30;;;;;;;4.60;1.55;;;16.70;99.90;;;;;;10047343;29;20276;-76
2023/04/30 09:57:51;;;;;;;2.08;1.17;;;17.50;99.90;;;;;;10046504;29;20202;-74
2023/04/30 10:03:14;;;;;;;2.63;1.10;;;17.80;99.90;;;;;;10098125;29;20424;-77
2023/04/30 10:08:56;;;;;;;5.20;1.40;;;18.20;99.90;;;;;;10084354;29;20233;-75
2023/04/30 10:14:19;;;;;;;3.42;1.90;;;18.70;99.90;;;;;;10083831;29;20397;-78
2023/04/30 10:19:45;;;;;;;14.55;1.42;;;18.80;99.90;;;;;;10106816;29;20208;-75
2023/04/30 10:25:12;;;;;;;2.92;1.23;;;19.50;1.00;;;;;;10120580;29;20313;-74
2023/04/30 10:30:34;;;;;;;4.05;1.33;;;19.50;99.90;;;;;;10111513;29;20242;-74
2023/04/30 10:36:03;;;;;;;7.28;1.95;;;19.60;99.90;;;;;;10104674;29;20300;-75
2023/04/30 10:41:26;;;;;;;30.75;2.75;;;19.40;99.90;;;;;;10121634;29;20198;-74
2023/04/30 10:46:48;;;;;;;4.82;1.80;;;;;;;;;;10133361;29;20233;-75
2023/04/30 10:52:10;;;;;;;5.53;2.00;;;;;;;;;;10081403;29;20367;-74
2023/04/30 10:57:32;;;;;;;5.10;2.25;;;;;;;;;;10082037;29;20230;-76
2023/04/30 11:03:03;;;;;;;3.17;2.05;;;;;;;;;;10068311;29;20484;-76
2023/04/30 11:08:37;;;;;;;2.95;1.65;;;;;;;;;;10091452;29;20537;-75
2023/04/30 11:13:59;;;;;;;4.65;1.65;;;;;;;;;;10081628;29;20195;-76
2023/04/30 11:19:23;;;;;;;2.13;1.50;;;;;;;;;;10096281;29;20314;-76
2023/04/30 11:24:51;;;;;;;7.82;2.47;;;;;;;;;;10096672;29;20390;-75
2023/04/30 11:30:14;;;;;;;7.38;1.77;;;;;;;;;;10080525;29;20245;-77
2023/04/30 11:35:35;;;;;;;5.78;1.80;;;;;;;;;;10107007;29;20202;-75
2023/04/30 11:40:57;;;;;;;5.43;1.70;;;;;;;;;;10119179;29;20408;-74
2023/04/30 11:46:19;;;;;;;7.50;2.30;;;;;;;;;;10116811;29;20230;-75
2023/04/30 11:51:40;;;;;;;6.80;1.77;;;;;;;;;;10116822;29;20312;-75
2023/04/30 11:57:03;;;;;;;8.55;2.10;;;;;;;;;;10095835;29;20210;-78
2023/04/30 12:02:25;;;;;;;4.20;1.98;;;;;;;;;;10084700;29;20214;-76
2023/04/30 12:07:47;;;;;;;7.68;2.53;;;;;;;;;;10096793;29;20242;-74
2023/04/30 12:13:13;;;;;;;3.03;1.63;;;;;;;;;;10079833;29;20197;-76
2023/04/30 12:18:34;;;;;;;17.77;2.47;;;;;;;;;;10095949;29;20209;-76
2023/04/30 12:23:57;;;;;;;7.07;1.70;;;;;;;;;;10116774;29;20200;-74
2023/04/30 12:29:19;;;;;;;3.13;1.45;;;;;;;;;;10115819;29;20261;-76
2023/04/30 12:34:41;;;;;;;3.65;1.75;;;;;;;;;;10106040;29;20201;-76
2023/04/30 12:40:02;;;;;;;4.97;1.73;;;;;;;;;;10117633;29;20559;-77
2023/04/30 12:45:43;;;;;;;6.50;2.78;;;;;;;;;;10100859;29;20228;-75
2023/04/30 12:51:05;;;;;;;8.60;3.35;;;;;;;;;;10054131;29;20213;-74
2023/04/30 12:56:27;;;;;;;5.03;2.20;;;;;;;;;;10102104;29;20258;-75
2023/04/30 13:01:48;;;;;;;4.80;2.97;;;;;;;;;;10080105;29;20257;-78
2023/04/30 13:07:10;;;;;;;5.20;2.30;;;;;;;;;;10071580;29;20532;-74
2023/04/30 13:12:32;;;;;;;5.78;1.42;;;;;;;;;;10064284;29;20210;-76
2023/04/30 13:17:54;;;;;;;13.05;1.77;;;;;;;;;;10046048;29;20200;-77
2023/04/30 13:23:16;;;;;;;3.30;1.83;;;;;;;;;;10051693;29;20210;-76
2023/04/30 13:28:38;;;;;;;7.20;1.75;;;;;;;;;;10081713;29;20432;-75
2023/04/30 13:33:59;;;;;;;4.10;1.80;;;;;;;;;;10084168;29;20205;-76
2023/04/30 13:39:21;;;;;;;4.30;2.20;;;;;;;;;;10047578;29;20400;-78
2023/04/30 13:44:48;;;;;;;6.15;1.63;;;;;;;;;;10084862;29;20197;-77
2023/04/30 13:50:10;;;;;;;3.67;1.85;;;;;;;;;;10100511;29;20229;-77
2023/04/30 13:55:32;;;;;;;8.70;3.05;;;;;;;;;;10096183;29;20203;-77
2023/04/30 14:00:53;;;;;;;6.88;2.00;;;;;;;;;;10096278;29;20197;-78
2023/04/30 14:06:15;;;;;;;5.43;1.88;;;;;;;;;;10074161;29;20231;-79
2023/04/30 14:11:36;;;;;;;2.15;1.52;;;;;;;;;;10084280;29;20204;-76
2023/04/30 14:16:58;;;;;;;7.63;2.38;;;;;;;;;;10095812;29;20531;-77
2023/04/30 14:22:20;;;;;;;5.43;2.58;;;15.90;99.90;;;;;;10103426;29;20213;-76
2023/04/30 14:27:41;;;;;;;4.38;2.05;;;15.90;1.00;;;;;;10120544;29;20245;-77
2023/04/30 14:33:02;;;;;;;4.15;1.77;;;15.40;1.00;;;;;;10091214;29;20216;-77
2023/04/30 14:38:24;;;;;;;5.47;2.42;;;15.40;1.00;;;;;;10107379;29;20278;-78
2023/04/30 14:43:45;;;;;;;13.88;2.45;;;15.30;1.00;;;;;;10094555;29;20215;-78
2023/04/30 14:49:06;;;;;;;4.53;2.20;;;15.10;1.00;;;;;;10082876;29;20225;-78
2023/04/30 14:54:27;;;;;;;3.97;2.20;;;14.90;1.00;;;;;;10117556;29;20235;-74
2023/04/30 14:59:48;;;;;;;10.90;2.58;;;14.60;1.00;;;;;;10090700;29;20265;-73
2023/04/30 15:05:09;;;;;;;4.30;1.60;;;14.30;1.00;;;;;;10103554;29;20498;-74
2023/04/30 15:10:31;;;;;;;4.45;2.03;;;14.10;1.00;;;;;;10089362;29;20261;-77
2023/04/30 15:15:51;;;;;;;5.18;2.17;;;14.00;1.00;;;;;;10120693;29;20384;-73
2023/04/30 15:21:12;;;;;;;5.28;2.50;;;14.00;1.00;;;;;;10120747;29;20196;-74
2023/04/30 15:26:33;;;;;;;6.72;2.38;;;13.80;1.00;;;;;;10112392;29;20296;-73
2023/04/30 15:31:55;;;;;;;7.57;2.90;;;13.50;1.00;;;;;;10098161;29;20266;-77
2023/04/30 15:37:16;;;;;;;5.90;3.08;;;13.40;1.00;;;;;;10067238;29;20198;-75
2023/04/30 15:42:38;;;;;;;8.63;4.03;;;13.30;99.90;;;;;;10100845;29;20236;-74
2023/04/30 15:47:59;;;;;;;6.82;3.70;;;13.40;99.90;;;;;;10117870;29;20250;-75
2023/04/30 15:53:20;;;;;;;8.20;3.80;;;13.30;99.90;;;;;;10118356;29;20198;-74
2023/04/30 15:58:41;;;;;;;8.82;4.70;;;13.10;1.00;;;;;;10091540;29;20262;-76
2023/04/30 16:04:02;;;;;;;5.72;3.38;;;13.00;1.00;;;;;;10080030;29;20202;-74
2023/04/30 16:09:24;;;;;;;7.07;3.70;;;13.00;1.00;;;;;;10079672;29;20540;-74
2023/04/30 16:14:45;;;;;;;6.47;2.63;;;12.90;1.00;;;;;;10117994;29;20517;-74
2023/04/30 16:20:07;;;;;;;7.07;3.53;;;12.80;1.00;;;;;;10118098;29;20448;-75
2023/04/30 16:25:29;;;;;;;4.07;1.95;;;12.80;1.00;;;;;;10110367;29;20216;-75
2023/04/30 16:30:50;;;;;;;11.02;4.30;;;12.70;1.00;;;;;;10105441;29;20259;-76
2023/04/30 16:36:11;;;;;;;9.20;3.70;;;12.60;1.00;;;;;;10079219;29;20276;-77
2023/04/30 16:41:32;;;;;;;6.30;2.58;;;12.50;1.00;;;;;;10094700;29;20198;-74
2023/04/30 16:46:55;;;;;;;4.70;2.00;;;12.40;1.00;;;;;;10117413;29;20229;-76
2023/04/30 16:52:17;;;;;;;6.07;2.50;;;12.20;1.00;;;;;;10111756;29;20336;-76
2023/04/30 16:57:38;;;;;;;4.83;2.60;;;12.00;1.00;;;;;;10104184;29;20201;-76
2023/04/30 17:02:59;;;;;;;8.43;3.70;;;;;;;;;;10083109;29;20223;-77
2023/04/30 17:08:21;;;;;;;6.43;3.37;;;;;;;;;;10083735;29;20427;-75
2023/04/30 17:13:42;;;;;;;7.53;2.93;;;;;;;;;;10071804;29;20199;-78
2023/04/30 17:19:04;;;;;;;2.50;1.70;;;;;;;;;;10085629;29;20523;-78
2023/04/30 17:24:26;;;;;;;7.50;3.13;;;;;;;;;;10065702;29;20201;-78
2023/04/30 17:29:47;;;;;;;5.47;3.10;;;;;;;;;;10085393;29;20482;-75
2023/04/30 17:35:09;;;;;;;7.13;4.33;;;;;;;;;;10084574;29;20217;-78
2023/04/30 17:40:32;;;;;;;4.73;1.70;;;;;;;;;;10082985;29;20377;-75
2023/04/30 17:45:54;;;;;;;7.83;3.47;;;;;;;;;;10083854;29;20228;-78
2023/04/30 17:51:17;;;;;;;5.97;3.23;;;;;;;;;;10082556;29;20202;-79
2023/04/30 17:56:39;;;;;;;6.53;3.57;;;;;;;;;;10118086;29;20205;-73
2023/04/30 18:02:01;;;;;;;9.33;4.67;;;;;;;;;;10083730;29;20493;-77
2023/04/30 18:07:23;;;;;;;13.10;6.07;;;;;;;;;;10082230;29;20554;-74
2023/04/30 18:12:44;;;;;;;10.57;4.77;;;;;;;;;;10061455;29;20276;-77
2023/04/30 18:18:08;;;;;;;13.90;4.97;;;;;;;;;;10068913;29;20211;-74
2023/04/30 18:23:29;;;;;;;13.57;5.83;;;;;;;;;;10099044;29;20288;-75
2023/04/30 18:28:51;;;;;;;17.80;9.30;;;10.00;1.00;;;;;;10083125;29;20249;-75
2023/04/30 18:34:12;;;;;;;14.80;6.93;;;9.90;1.00;;;;;;10081877;29;20205;-78
2023/04/30 18:39:34;;;;;;;14.77;7.20;;;10.10;1.00;;;;;;10108145;29;20215;-76
2023/04/30 18:44:56;;;;;;;17.47;7.57;;;10.10;1.00;;;;;;10085760;29;20258;-76
2023/04/30 18:50:18;;;;;;;13.33;5.83;;;10.00;1.00;;;;;;10080590;29;20256;-78
2023/04/30 18:55:40;;;;;;;12.47;5.93;;;10.00;1.00;;;;;;10119863;29;20201;-75
2023/04/30 19:01:01;;;;;;;18.97;7.63;;;9.90;1.00;;;;;;10044088;29;20442;-74
2023/04/30 19:06:22;;;;;;;40.03;13.40;;;9.90;1.00;;;;;;10060456;29;20235;-77
2023/04/30 19:11:43;;;;;;;37.73;15.97;;;9.80;1.00;;;;;;10081310;29;20207;-77
2023/04/30 19:17:04;;;;;;;36.50;15.47;;;9.70;1.00;;;;;;10081743;29;20272;-75
2023/04/30 19:22:25;;;;;;;19.77;9.03;;;9.50;99.90;;;;;;10097031;29;20209;-75
2023/04/30 19:27:46;;;;;;;11.97;6.93;;;9.30;99.90;;;;;;10111419;29;20466;-78
2023/04/30 19:33:07;;;;;;;7.87;4.97;;;9.30;99.90;;;;;;10089556;29;20201;-76
2023/04/30 19:38:28;;;;;;;8.30;3.07;;;9.20;99.90;;;;;;10081045;29;20492;-74
2023/04/30 19:43:51;;;;;;;4.70;2.53;;;9.10;99.90;;;;;;10089887;29;20493;-76
2023/04/30 19:49:12;;;;;;;5.73;2.77;;;9.10;99.90;;;;;;10118131;29;20231;-78
2023/04/30 19:54:33;;;;;;;6.57;3.10;;;9.00;99.90;;;;;;10122461;29;20198;-74
2023/04/30 19:59:54;;;;;;;5.10;2.63;;;8.90;99.90;;;;;;10114666;29;20256;-73
2023/04/30 20:05:15;;;;;;;7.20;2.47;;;8.90;99.90;;;;;;10118239;29;20195;-77
2023/04/30 20:10:38;;;;;;;4.90;2.70;;;8.70;99.90;;;;;;10088665;29;20228;-76
2023/04/30 20:16:00;;;;;;;7.20;3.10;;;8.70;99.90;;;;;;10110490;29;20219;-76
2023/04/30 20:21:23;;;;;;;7.57;3.47;;;8.60;99.90;;;;;;10104326;29;20267;-73
2023/04/30 20:26:44;;;;;;;8.57;3.93;;;8.50;99.90;;;;;;10111965;29;20522;-73
2023/04/30 20:32:06;;;;;;;9.40;3.70;;;8.40;99.90;;;;;;10081587;29;20570;-77
2023/04/30 20:37:27;;;;;;;7.43;3.47;;;8.40;99.90;;;;;;10077795;29;20226;-73
2023/04/30 20:42:50;;;;;;;5.80;3.20;;;8.40;99.90;;;;;;10081331;29;20203;-74
2023/04/30 20:48:11;;;;;;;16.70;5.30;;;8.30;99.90;;;;;;10117249;29;20242;-76
2023/04/30 20:53:32;;;;;;;10.07;4.43;;;8.20;1.00;;;;;;10117502;29;20495;-77
2023/04/30 20:58:53;;;;;;;8.87;4.07;;;8.10;1.00;;;;;;10106392;29;20430;-76
2023/04/30 21:04:14;;;;;;;12.67;4.70;;;8.00;1.00;;;;;;10116105;29;20209;-77
2023/04/30 21:09:37;;;;;;;12.93;6.37;;;8.00;1.00;;;;;;10096444;29;20260;-78
2023/04/30 21:14:58;;;;;;;14.93;7.10;;;7.90;1.00;;;;;;10097043;29;20517;-74
2023/04/30 21:20:19;;;;;;;9.17;4.67;;;7.80;1.00;;;;;;10117115;29;20362;-76
2023/04/30 21:25:40;;;;;;;6.53;4.37;;;7.80;1.00;;;;;;10116803;29;20457;-75
2023/04/30 21:31:06;;;;;;;8.33;3.97;;;7.80;1.00;;;;;;10082771;29;20251;-77
2023/04/30 21:36:28;;;;;;;12.83;5.67;;;7.70;1.00;;;;;;10078339;29;20198;-76
2023/04/30 21:41:49;;;;;;;12.10;6.13;;;7.60;1.00;;;;;;10089342;29;20209;-77
2023/04/30 21:47:10;;;;;;;14.03;7.60;;;7.50;1.00;;;;;;10102968;29;20282;-78
2023/04/30 21:52:31;;;;;;;14.10;8.17;;;7.40;1.00;;;;;;10123431;29;20279;-77
2023/04/30 21:57:53;;;;;;;16.00;7.00;;;7.30;1.00;;;;;;10105619;29;20203;-76
2023/04/30 22:03:14;;;;;;;12.03;5.87;;;7.40;48.50;;;;;;10083224;29;20203;-76
2023/04/30 22:08:35;;;;;;;9.57;4.80;;;7.30;66.40;;;;;;10083867;29;20236;-76
2023/04/30 22:13:57;;;;;;;11.97;5.43;;;7.20;51.20;;;;;;10079673;29;20228;-77
2023/04/30 22:19:18;;;;;;;8.83;4.60;;;7.30;99.90;;;;;;10082914;29;20210;-75
2023/04/30 22:24:40;;;;;;;7.30;4.40;;;7.20;99.90;;;;;;10083749;29;20203;-75
2023/04/30 22:30:01;;;;;;;6.90;3.80;;;7.20;99.90;;;;;;10094454;29;20596;-76
2023/04/30 22:35:22;;;;;;;8.23;4.33;;;7.10;99.90;;;;;;10083356;29;20201;-78
2023/04/30 22:40:44;;;;;;;6.33;4.00;;;7.10;99.90;;;;;;10083267;29;20277;-78
2023/04/30 22:46:05;;;;;;;8.10;4.23;;;7.00;99.90;;;;;;10111444;29;20211;-77
2023/04/30 22:51:26;;;;;;;13.10;3.90;;;6.90;99.90;;;;;;10127154;29;20302;-79
2023/04/30 22:56:47;;;;;;;6.47;3.83;;;6.80;99.90;;;;;;10115280;29;20207;-77
2023/04/30 23:02:08;;;;;;;8.47;3.70;;;6.70;99.90;;;;;;10120844;29;20204;-76
2023/04/30 23:07:28;;;;;;;12.73;5.70;;;6.60;1.00;;;;;;10097521;29;20231;-77
2023/04/30 23:12:50;;;;;;;24.13;11.37;;;;;;;;;;10090096;29;20202;-77
2023/04/30 23:18:11;;;;;;;22.10;10.53;;;;;;;;;;10050566;29;20229;-77
2023/04/30 23:23:33;;;;;;;20.53;10.13;;;;;;;;;;10080314;29;20491;-73
2023/04/30 23:28:55;;;;;;;17.93;8.93;;;;;;;;;;10050655;29;20241;-75
2023/04/30 23:34:16;;;;;;;15.97;8.87;;;;;;;;;;10042790;29;20195;-76
2023/04/30 23:39:38;;;;;;;17.90;9.40;;;5.90;99.90;;;;;;10041562;29;20222;-76
2023/04/30 23:44:59;;;;;;;17.60;9.97;;;5.80;99.90;;;;;;10061866;29;20493;-77
2023/04/30 23:50:20;;;;;;;14.70;9.00;;;5.80;99.90;;;;;;10080624;29;20296;-77
2023/04/30 23:55:41;;;;;;;13.87;8.90;;;5.80;98.50;;;;;;10079539;29;20204;-75
